Time;durP1;ratioP1;P1;durP2;ratioP2;P2;SDS_P1;SDS_P2;PMS_P1;PMS_P2;Temp;Humidity;BMP_temperature;BMP_pressure;BME280_temperature;BME280_humidity;BME280_pressure;Samples;Min_cycle;Max_cycle;Signal;HPM_P1;HPM_P2
2019/07/21 00:00:29;;;;;;;7;5.7;;;;;;;;;;;;;
2019/07/21 00:02:52;;;;;;;6.8;5.7;;;;;;;;;;;;;
2019/07/21 00:05:19;;;;;;;8.2;5.8;;;;;;;;;;;;;
2019/07/21 00:07:49;;;;;;;6.7;6;;;;;;;;;;;;;
2019/07/21 00:10:09;;;;;;;6.7;6;;;;;;;;;;;;;
2019/07/21 00:12:36;;;;;;;9.2;6.3;;;;;;;;;;;;;
2019/07/21 00:15:06;;;;;;;6.5;5.7;;;;;;;;;;;;;
2019/07/21 00:17:28;;;;;;;6.7;5.8;;;;;;;;;;;;;
2019/07/21 00:20:01;;;;;;;6.8;5.4;;;;;;;;;;;;;
2019/07/21 00:22:33;;;;;;;6.9;6.1;;;;;;;;;;;;;
2019/07/21 00:24:56;;;;;;;6.9;6.2;;;;;;;;;;;;;
2019/07/21 00:27:23;;;;;;;4.8;4.2;;;;;;;;;;;;;
2019/07/21 00:29:55;;;;;;;4.9;3.8;;;;;;;;;;;;;
2019/07/21 00:32:18;;;;;;;5.6;4.2;;;;;;;;;;;;;
2019/07/21 00:34:40;;;;;;;5.9;4.9;;;;;;;;;;;;;
2019/07/21 00:37:04;;;;;;;7;5.7;;;;;;;;;;;;;
2019/07/21 00:39:29;;;;;;;6.2;5.6;;;;;;;;;;;;;
2019/07/21 00:41:54;;;;;;;6.9;5.7;;;;;;;;;;;;;
2019/07/21 00:44:20;;;;;;;8;6.2;;;;;;;;;;;;;
2019/07/21 00:46:45;;;;;;;9;6.4;;;;;;;;;;;;;
2019/07/21 00:49:09;;;;;;;6.8;5.5;;;;;;;;;;;;;
2019/07/21 00:51:35;;;;;;;7.5;6.1;;;;;;;;;;;;;
2019/07/21 00:54:01;;;;;;;7.2;5.9;;;;;;;;;;;;;
2019/07/21 00:56:27;;;;;;;7.2;6.1;;;;;;;;;;;;;
2019/07/21 00:58:53;;;;;;;8.7;6.1;;;;;;;;;;;;;
2019/07/21 01:01:21;;;;;;;7.9;6.4;;;;;;;;;;;;;
2019/07/21 01:03:42;;;;;;;9.1;6.7;;;;;;;;;;;;;
2019/07/21 01:06:08;;;;;;;7.5;6.7;;;;;;;;;;;;;
2019/07/21 01:08:38;;;;;;;7.4;6.6;;;;;;;;;;;;;
2019/07/21 01:11:03;;;;;;;7.2;6.4;;;;;;;;;;;;;
2019/07/21 01:13:26;;;;;;;9.6;7.1;;;;;;;;;;;;;
2019/07/21 01:15:49;;;;;;;9.9;7.4;;;;;;;;;;;;;
2019/07/21 01:18:16;;;;;;;10.4;6.9;;;;;;;;;;;;;
2019/07/21 01:20:39;;;;;;;8.1;6.4;;;;;;;;;;;;;
2019/07/21 01:23:05;;;;;;;8.3;6.7;;;;;;;;;;;;;
2019/07/21 01:25:31;;;;;;;9.8;6.5;;;;;;;;;;;;;
2019/07/21 01:27:54;;;;;;;8.3;6.9;;;;;;;;;;;;;
2019/07/21 01:30:23;;;;;;;7.6;6.2;;;;;;;;;;;;;
2019/07/21 01:32:49;;;;;;;7.8;6.8;;;;;;;;;;;;;
2019/07/21 01:35:13;;;;;;;7.1;6.1;;;;;;;;;;;;;
2019/07/21 01:37:41;;;;;;;9.4;6.2;;;;;;;;;;;;;
2019/07/21 01:40:04;;;;;;;6.6;5.7;;;;;;;;;;;;;
2019/07/21 01:42:30;;;;;;;6.2;5;;;;;;;;;;;;;
2019/07/21 01:44:57;;;;;;;8.3;6.1;;;;;;;;;;;;;
2019/07/21 01:47:23;;;;;;;5.9;5.3;;;;;;;;;;;;;
2019/07/21 01:49:47;;;;;;;6.2;5.3;;;;;;;;;;;;;
2019/07/21 01:52:21;;;;;;;8.7;5.7;;;;;;;;;;;;;
2019/07/21 01:54:41;;;;;;;8;6;;;;;;;;;;;;;
2019/07/21 01:57:02;;;;;;;6.9;6.2;;;;;;;;;;;;;
2019/07/21 01:59:28;;;;;;;7.8;5.7;;;;;;;;;;;;;
2019/07/21 02:01:54;;;;;;;7.1;6.3;;;;;;;;;;;;;
2019/07/21 02:04:20;;;;;;;6.6;5.8;;;;;;;;;;;;;
2019/07/21 02:06:47;;;;;;;7.2;5.5;;;;;;;;;;;;;
2019/07/21 02:09:09;;;;;;;5;4.3;;;;;;;;;;;;;
2019/07/21 02:11:35;;;;;;;6.1;4.6;;;;;;;;;;;;;
2019/07/21 02:14:06;;;;;;;5.9;4.9;;;;;;;;;;;;;
2019/07/21 02:16:31;;;;;;;7.2;5.9;;;;;;;;;;;;;
2019/07/21 02:18:56;;;;;;;7.1;6.2;;;;;;;;;;;;;
2019/07/21 02:21:24;;;;;;;7.5;6.7;;;;;;;;;;;;;
2019/07/21 02:23:48;;;;;;;7.4;6.6;;;;;;;;;;;;;
2019/07/21 02:26:15;;;;;;;8.5;6.5;;;;;;;;;;;;;
2019/07/21 02:28:39;;;;;;;7.1;5.6;;;;;;;;;;;;;
2019/07/21 02:31:04;;;;;;;6.1;5.1;;;;;;;;;;;;;
2019/07/21 02:33:30;;;;;;;8.9;6;;;;;;;;;;;;;
2019/07/21 02:35:56;;;;;;;6.3;5.5;;;;;;;;;;;;;
2019/07/21 02:38:24;;;;;;;6.2;5.5;;;;;;;;;;;;;
2019/07/21 02:40:52;;;;;;;5.8;5.2;;;;;;;;;;;;;
2019/07/21 02:43:20;;;;;;;7.8;4.9;;;;;;;;;;;;;
2019/07/21 02:45:40;;;;;;;5.5;4.4;;;;;;;;;;;;;
2019/07/21 02:48:09;;;;;;;5.7;4.4;;;;;;;;;;;;;
2019/07/21 02:50:34;;;;;;;6.3;4.7;;;;;;;;;;;;;
2019/07/21 02:52:59;;;;;;;8.3;4.8;;;;;;;;;;;;;
2019/07/21 02:55:23;;;;;;;5.7;5;;;;;;;;;;;;;
2019/07/21 02:57:53;;;;;;;8.3;5.5;;;;;;;;;;;;;
2019/07/21 03:00:17;;;;;;;6.7;5.6;;;;;;;;;;;;;
2019/07/21 03:02:38;;;;;;;7.4;6.6;;;;;;;;;;;;;
2019/07/21 03:05:04;;;;;;;7.7;6.8;;;;;;;;;;;;;
2019/07/21 03:07:29;;;;;;;7.4;6.4;;;;;;;;;;;;;
2019/07/21 03:09:55;;;;;;;8.3;7;;;;;;;;;;;;;
2019/07/21 03:12:20;;;;;;;9.4;6.8;;;;;;;;;;;;;
2019/07/21 03:14:46;;;;;;;10.9;6.7;;;;;;;;;;;;;
2019/07/21 03:17:09;;;;;;;11.3;7.2;;;;;;;;;;;;;
2019/07/21 03:19:36;;;;;;;9.2;7.6;;;;;;;;;;;;;
2019/07/21 03:22:00;;;;;;;9.1;7.4;;;;;;;;;;;;;
2019/07/21 03:24:28;;;;;;;8.2;6.3;;;;;;;;;;;;;
2019/07/21 03:26:56;;;;;;;7.5;6.7;;;;;;;;;;;;;
2019/07/21 03:29:19;;;;;;;8.7;6.6;;;;;;;;;;;;;
2019/07/21 03:31:46;;;;;;;6.7;5.9;;;;;;;;;;;;;
2019/07/21 03:34:09;;;;;;;8.5;7;;;;;;;;;;;;;
2019/07/21 03:36:36;;;;;;;11.2;7.5;;;;;;;;;;;;;
2019/07/21 03:39:00;;;;;;;8.5;7.4;;;;;;;;;;;;;
2019/07/21 03:41:26;;;;;;;6.7;6.1;;;;;;;;;;;;;
2019/07/21 03:43:50;;;;;;;7.9;6.8;;;;;;;;;;;;;
2019/07/21 03:46:20;;;;;;;8.7;7;;;;;;;;;;;;;
2019/07/21 03:48:44;;;;;;;8;7.2;;;;;;;;;;;;;
2019/07/21 03:51:14;;;;;;;9;7.4;;;;;;;;;;;;;
2019/07/21 03:53:35;;;;;;;8.5;7.3;;;;;;;;;;;;;
2019/07/21 03:56:01;;;;;;;9.5;8;;;;;;;;;;;;;
2019/07/21 03:58:30;;;;;;;9.2;7.8;;;;;;;;;;;;;
2019/07/21 04:02:37;;;;;;;8;7.2;;;;;;;18.16;87.14258;942.6566;;;;
2019/07/21 04:05:00;;;;;;;8.9;7.7;;;;;;;18.48;85.75195;942.6964;;;;
2019/07/21 04:07:25;;;;;;;9.9;8;;;;;;;18.56;85.15137;942.7687;;;;
2019/07/21 04:09:54;;;;;;;8.4;7.5;;;;;;;18.27;86.01367;942.7256;;;;
2019/07/21 04:12:21;;;;;;;9.2;7.2;;;;;;;18.31;86.13477;942.9196;;;;
2019/07/21 04:14:45;;;;;;;9.7;7.1;;;;;;;18.17;86.00586;942.8531;;;;
2019/07/21 04:17:40;;;;;;;6.5;5.9;;;;;;;18.34;84.13086;942.8683;;;;
2019/07/21 04:19:50;;;;;;;6.5;5.8;;;;;;;18.29;83.6582;942.8608;;;;
2019/07/21 04:22:15;;;;;;;6.1;5.3;;;;;;;18.46;83.14258;942.9751;;;;
2019/07/21 04:24:41;;;;;;;6.6;6;;;;;;;18.57;83.61816;943.0517;;;;
2019/07/21 04:27:06;;;;;;;7.9;7.1;;;;;;;18.62;84.2334;943.1063;;;;
2019/07/21 04:29:33;;;;;;;8;7.2;;;;;;;18.7;84.85352;943.1788;;;;
2019/07/21 04:32:02;;;;;;;7.8;6.8;;;;;;;18.36;85.58984;943.1792;;;;
2019/07/21 04:34:27;;;;;;;6.3;5.7;;;;;;;18.52;83.41016;943.1872;;;;
2019/07/21 04:36:55;;;;;;;7.6;6.3;;;;;;;18.69;84.11914;943.287;;;;
2019/07/21 04:39:21;;;;;;;7.5;6.7;;;;;;;18.67;84.20801;943.3325;;;;
2019/07/21 04:41:54;;;;;;;7.6;6.9;;;;;;;18.57;84.71094;943.4648;;;;
2019/07/21 04:44:18;;;;;;;9.1;7.7;;;;;;;18.63;84.71191;943.5008;;;;
2019/07/21 04:46:43;;;;;;;8;7.3;;;;;;;18.78;84.41406;943.4964;;;;
2019/07/21 04:49:09;;;;;;;8.1;7.3;;;;;;;18.96;84.07715;943.5006;;;;
2019/07/21 04:51:36;;;;;;;8.9;7.6;;;;;;;18.86;84.12695;943.5691;;;;
2019/07/21 04:54:03;;;;;;;9.5;7.4;;;;;;;18.84;84.07617;943.558;;;;
2019/07/21 04:56:29;;;;;;;9;7.5;;;;;;;19;83.22168;943.5994;;;;
2019/07/21 04:58:52;;;;;;;8.4;7.5;;;;;;;18.9;83.91406;943.5636;;;;
2019/07/21 05:01:18;;;;;;;8.4;7.6;;;;;;;18.81;84.3623;943.5831;;;;
2019/07/21 05:03:56;;;;;;;7.9;7.1;;;;;;;18.72;84.87988;943.6666;;;;
2019/07/21 05:06:25;;;;;;;9.4;8.4;;;;;;;18.79;84.83398;943.723;;;;
2019/07/21 05:08:57;;;;;;;10.1;9.1;;;;;;;18.84;84.90332;943.7864;;;;
2019/07/21 05:11:24;;;;;;;10.8;8.8;;;;;;;18.78;85.39063;943.858;;;;
2019/07/21 05:14:04;;;;;;;10.9;8.5;;;;;;;18.89;84.37598;944.0173;;;;
2019/07/21 05:16:25;;;;;;;9.8;8.8;;;;;;;18.89;84.5625;944.1683;;;;
2019/07/21 05:18:55;;;;;;;9.4;8.4;;;;;;;19.02;84.19238;944.2427;;;;
2019/07/21 05:21:20;;;;;;;10.9;9;;;;;;;19.04;84.20801;944.2796;;;;
2019/07/21 05:23:52;;;;;;;10;9;;;;;;;19.05;84.19824;944.39;;;;
2019/07/21 05:26:27;;;;;;;9.2;8.4;;;;;;;19.02;84.23926;944.2943;;;;
2019/07/21 05:28:50;;;;;;;8.3;7.5;;;;;;;18.94;84.16504;944.1967;;;;
2019/07/21 05:31:25;;;;;;;9.1;8.2;;;;;;;18.67;86.00977;944.0901;;;;
2019/07/21 05:34:06;;;;;;;9.9;8.5;;;;;;;18.82;85.55078;943.9908;;;;
2019/07/21 05:36:52;;;;;;;9.1;8.2;;;;;;;18.84;85.27539;943.9026;;;;
2019/07/21 05:39:29;;;;;;;10.9;9.1;;;;;;;18.88;85.92383;944.0352;;;;
2019/07/21 05:41:51;;;;;;;11.5;9.4;;;;;;;18.78;86.92676;944.0516;;;;
2019/07/21 05:44:27;;;;;;;10.9;9.4;;;;;;;18.64;86.70215;944.0719;;;;
2019/07/21 05:46:53;;;;;;;9.1;8.1;;;;;;;18.75;85.78125;944.1843;;;;
2019/07/21 05:49:25;;;;;;;10.9;9.6;;;;;;;18.78;86.36816;944.3356;;;;
2019/07/21 05:51:47;;;;;;;10.1;9.1;;;;;;;18.95;85.44531;944.4064;;;;
2019/07/21 05:54:17;;;;;;;10.4;9.3;;;;;;;18.91;85.60352;944.5272;;;;
2019/07/21 05:56:44;;;;;;;10.1;8.3;;;;;;;18.94;85.22461;944.5583;;;;
2019/07/21 05:59:16;;;;;;;10.7;8.6;;;;;;;18.91;85.06836;944.6772;;;;
2019/07/21 06:01:35;;;;;;;9;8.2;;;;;;;18.82;85.61914;944.7483;;;;
2019/07/21 06:04:01;;;;;;;9.7;8.7;;;;;;;18.78;85.98633;944.7399;;;;
2019/07/21 06:06:42;;;;;;;11.9;9.4;;;;;;;18.9;86.08887;944.7048;;;;
2019/07/21 06:09:07;;;;;;;9.8;8.8;;;;;;;18.91;86.01074;944.6902;;;;
2019/07/21 06:11:37;;;;;;;10.5;8.8;;;;;;;18.73;86.56934;944.6767;;;;
2019/07/21 06:14:11;;;;;;;11.1;9;;;;;;;18.53;87.66992;944.6993;;;;
2019/07/21 06:16:37;;;;;;;11.6;9.6;;;;;;;18.59;88.19238;944.4688;;;;
2019/07/21 06:19:03;;;;;;;10.1;8.5;;;;;;;18.7;86.75;944.2026;;;;
2019/07/21 06:21:37;;;;;;;14.4;10.2;;;;;;;18.87;86.56055;944.1572;;;;
2019/07/21 06:24:00;;;;;;;14.6;11.1;;;;;;;18.88;87.42383;944.337;;;;
2019/07/21 06:26:23;;;;;;;13.1;11.4;;;;;;;18.91;87.48926;944.3206;;;;
2019/07/21 06:28:55;;;;;;;11.4;10.3;;;;;;;19;86.87695;944.2927;;;;
2019/07/21 06:31:24;;;;;;;12.6;9.6;;;;;;;18.99;86.80469;944.3364;;;;
2019/07/21 06:33:48;;;;;;;10.6;9.5;;;;;;;19.22;86.1875;944.3613;;;;
2019/07/21 06:36:16;;;;;;;9.4;8.4;;;;;;;19.24;85.73828;944.3675;;;;
2019/07/21 06:38:43;;;;;;;7.5;6.8;;;;;;;19.37;84.88867;944.4125;;;;
2019/07/21 06:41:17;;;;;;;8.3;6.7;;;;;;;19.43;84.17676;944.4572;;;;
2019/07/21 06:43:46;;;;;;;8.1;7.3;;;;;;;19.42;84.88574;944.5008;;;;
2019/07/21 06:46:10;;;;;;;7.8;7;;;;;;;19.38;84.95898;944.6094;;;;
2019/07/21 06:48:41;;;;;;;10;7.7;;;;;;;19.47;84.80273;944.6415;;;;
2019/07/21 06:51:06;;;;;;;9.5;7.3;;;;;;;19.48;84.43066;944.6495;;;;
2019/07/21 06:53:35;;;;;;;8.6;7.2;;;;;;;19.47;83.83594;944.5898;;;;
2019/07/21 06:55:57;;;;;;;8.9;7.2;;;;;;;19.51;84.04102;944.5553;;;;
2019/07/21 06:58:26;;;;;;;8;7.2;;;;;;;19.32;84.78516;944.6465;;;;
2019/07/21 07:00:54;;;;;;;9.5;6.5;;;;;;;19.1;84.83496;944.8148;;;;
2019/07/21 07:03:21;;;;;;;6.8;6;;;;;;;18.69;86.09473;944.7894;;;;
2019/07/21 07:05:56;;;;;;;8.1;6.6;;;;;;;18.69;86.42188;944.6811;;;;
2019/07/21 07:08:13;;;;;;;8.2;7.4;;;;;;;19;86.25977;944.5769;;;;
2019/07/21 07:10:38;;;;;;;11.1;8.7;;;;;;;19.17;85.50098;944.5394;;;;
2019/07/21 07:13:09;;;;;;;8.8;7.9;;;;;;;18.89;86.66895;944.6839;;;;
2019/07/21 07:15:51;;;;;;;9.6;8;;;;;;;19.13;85.62207;944.6472;;;;
2019/07/21 07:20:52;;;;;;;10.3;8.4;;;;;;;19.02;87.10156;944.5016;;;;
2019/07/21 07:23:25;;;;;;;8.7;7.5;;;;;;;18.92;87.10449;944.5779;;;;
2019/07/21 07:25:45;;;;;;;10.1;7.7;;;;;;;18.98;87.57129;944.4673;;;;
2019/07/21 07:28:09;;;;;;;10.6;7.8;;;;;;;19.03;87.39551;944.4742;;;;
2019/07/21 07:30:35;;;;;;;9.1;8.2;;;;;;;19.18;87.79688;944.4698;;;;
2019/07/21 07:33:06;;;;;;;7.6;6.8;;;;;;;19.39;85.69629;944.5519;;;;
2019/07/21 07:35:30;;;;;;;8.9;7.4;;;;;;;19.3;85.73535;944.546;;;;
2019/07/21 07:38:02;;;;;;;8.6;7.7;;;;;;;19.19;87.21875;944.5416;;;;
2019/07/21 07:40:27;;;;;;;9;7.5;;;;;;;19.16;87.6543;944.5621;;;;
2019/07/21 07:42:54;;;;;;;8.9;8;;;;;;;19.3;88.17188;944.5798;;;;
2019/07/21 07:45:24;;;;;;;10.1;7.7;;;;;;;19.47;87.49512;944.6116;;;;
2019/07/21 07:47:52;;;;;;;8.7;7.7;;;;;;;19.45;86.62891;944.6522;;;;
2019/07/21 07:50:17;;;;;;;9.2;8.3;;;;;;;19.25;87.81152;944.6936;;;;
2019/07/21 07:52:40;;;;;;;9.2;7.6;;;;;;;19.07;88.03125;944.7708;;;;
2019/07/21 07:55:09;;;;;;;10;8.4;;;;;;;19.09;88.05859;944.8464;;;;
2019/07/21 07:57:33;;;;;;;10.3;8.7;;;;;;;18.99;88.81836;944.7755;;;;
2019/07/21 07:59:56;;;;;;;9.5;8.5;;;;;;;19.23;86.96973;944.6576;;;;
2019/07/21 08:02:22;;;;;;;8.3;7.5;;;;;;;18.98;87.82715;944.5617;;;;
2019/07/21 08:04:59;;;;;;;9.1;7.8;;;;;;;19.08;87.5;944.584;;;;
2019/07/21 08:07:23;;;;;;;8.2;7.3;;;;;;;19.28;87.47949;944.6472;;;;
2019/07/21 08:09:49;;;;;;;7.9;7.1;;;;;;;19.31;86.89258;944.6783;;;;
2019/07/21 08:12:20;;;;;;;8;7.2;;;;;;;19.51;86.6377;944.6806;;;;
2019/07/21 08:14:44;;;;;;;8.1;6.8;;;;;;;19.72;86.15625;944.6295;;;;
2019/07/21 08:17:17;;;;;;;6.9;6.2;;;;;;;19.72;84.98047;944.5858;;;;
2019/07/21 08:19:46;;;;;;;7.8;6.6;;;;;;;19.85;85.4707;944.618;;;;
2019/07/21 08:22:10;;;;;;;7;6.3;;;;;;;;;;;;;
2019/07/21 08:24:34;;;;;;;10.4;7.2;;;;;;;;;;;;;
2019/07/21 08:26:59;;;;;;;7.1;6.4;;;;;;;;;;;;;
2019/07/21 08:29:24;;;;;;;7.1;6.4;;;;;;;;;;;;;
2019/07/21 08:31:52;;;;;;;6.8;5.9;;;;;;;;;;;;;
2019/07/21 08:34:16;;;;;;;7.7;6.4;;;;;;;;;;;;;
2019/07/21 08:36:40;;;;;;;7.7;6.6;;;;;;;;;;;;;
2019/07/21 08:39:13;;;;;;;6.9;6.1;;;;;;;;;;;;;
2019/07/21 08:41:36;;;;;;;7;6.4;;;;;;;;;;;;;
2019/07/21 08:43:55;;;;;;;6.4;5.8;;;;;;;;;;;;;
2019/07/21 08:46:22;;;;;;;6.8;6.1;;;;;;;;;;;;;
2019/07/21 08:49:05;;;;;;;6.7;6.1;;;;;;;;;;;;;
2019/07/21 08:51:26;;;;;;;7;6.3;;;;;;;;;;;;;
2019/07/21 08:53:51;;;;;;;6;5.4;;;;;;;;;;;;;
2019/07/21 08:56:23;;;;;;;6.2;5.6;;;;;;;;;;;;;
2019/07/21 08:58:46;;;;;;;6.9;5.4;;;;;;;;;;;;;
2019/07/21 09:01:18;;;;;;;6.7;5.3;;;;;;;;;;;;;
2019/07/21 09:04:24;;;;;;;5.8;5;;;;;;;;;;;;;
2019/07/21 09:06:37;;;;;;;6.8;5.2;;;;;;;;;;;;;
2019/07/21 09:08:52;;;;;;;5.3;4.4;;;;;;;;;;;;;
2019/07/21 09:11:17;;;;;;;6.4;4.7;;;;;;;;;;;;;
2019/07/21 09:13:44;;;;;;;5;4.4;;;;;;;;;;;;;
2019/07/21 09:16:12;;;;;;;5.2;4.5;;;;;;;;;;;;;
2019/07/21 09:18:38;;;;;;;6.5;4.6;;;;;;;;;;;;;
2019/07/21 09:21:00;;;;;;;5.3;4.8;;;;;;;;;;;;;
2019/07/21 09:23:25;;;;;;;5.9;5.2;;;;;;;;;;;;;
2019/07/21 09:25:56;;;;;;;6.6;5.5;;;;;;;;;;;;;
2019/07/21 09:28:16;;;;;;;5.9;5.3;;;;;;;;;;;;;
2019/07/21 09:30:41;;;;;;;8.3;6.2;;;;;;;;;;;;;
2019/07/21 09:33:07;;;;;;;6.4;5.6;;;;;;;;;;;;;
2019/07/21 09:35:34;;;;;;;9.6;6.4;;;;;;;;;;;;;
2019/07/21 09:38:00;;;;;;;8.6;6.6;;;;;;;;;;;;;
2019/07/21 09:40:21;;;;;;;7.2;6.5;;;;;;;;;;;;;
2019/07/21 09:42:51;;;;;;;7;6.2;;;;;;;;;;;;;
2019/07/21 09:45:13;;;;;;;7.6;6.1;;;;;;;;;;;;;
2019/07/21 09:47:40;;;;;;;6.4;5.5;;;;;;;;;;;;;
2019/07/21 09:50:01;;;;;;;6.6;5.7;;;;;;;;;;;;;
2019/07/21 09:52:28;;;;;;;5.9;5.3;;;;;;;;;;;;;
2019/07/21 09:54:53;;;;;;;7.4;5.4;;;;;;;;;;;;;
2019/07/21 09:57:22;;;;;;;5.7;5.2;;;;;;;;;;;;;
2019/07/21 09:59:45;;;;;;;6.1;5.5;;;;;;;;;;;;;
2019/07/21 10:02:09;;;;;;;6;4.8;;;;;;;;;;;;;
2019/07/21 10:04:39;;;;;;;5.7;5.1;;;;;;;;;;;;;
2019/07/21 10:07:00;;;;;;;5.6;5;;;;;;;;;;;;;
2019/07/21 10:09:28;;;;;;;5.4;4.9;;;;;;;;;;;;;
2019/07/21 10:11:58;;;;;;;6.4;5;;;;;;;;;;;;;
2019/07/21 10:14:27;;;;;;;4.8;4.3;;;;;;;;;;;;;
2019/07/21 10:16:47;;;;;;;4.9;4.4;;;;;;;;;;;;;
2019/07/21 10:19:15;;;;;;;5.6;4.6;;;;;;;;;;;;;
2019/07/21 10:24:04;;;;;;;5.1;4.6;;;;;;;;;;;;;
2019/07/21 10:26:48;;;;;;;5.3;4.7;;;;;;;;;;;;;
2019/07/21 10:28:57;;;;;;;4.6;4.2;;;;;;;;;;;;;
2019/07/21 10:31:32;;;;;;;7.4;4.6;;;;;;;;;;;;;
2019/07/21 10:33:52;;;;;;;5.2;4.4;;;;;;;;;;;;;
2019/07/21 10:36:15;;;;;;;4.8;4.1;;;;;;;;;;;;;
2019/07/21 10:38:42;;;;;;;4.5;4.1;;;;;;;;;;;;;
2019/07/21 10:41:09;;;;;;;4.7;4.1;;;;;;;;;;;;;
2019/07/21 10:43:33;;;;;;;4.7;4;;;;;;;;;;;;;
2019/07/21 10:45:58;;;;;;;4.1;3.7;;;;;;;;;;;;;
2019/07/21 10:48:24;;;;;;;3.7;3.4;;;;;;;;;;;;;
2019/07/21 10:50:53;;;;;;;4.3;3.5;;;;;;;;;;;;;
2019/07/21 10:53:16;;;;;;;4.1;3.6;;;;;;;;;;;;;
2019/07/21 10:55:43;;;;;;;4.2;3.3;;;;;;;;;;;;;
2019/07/21 10:58:09;;;;;;;3.4;3.1;;;;;;;;;;;;;
2019/07/21 11:00:39;;;;;;;4.3;3.3;;;;;;;;;;;;;
2019/07/21 11:03:01;;;;;;;4.1;3.6;;;;;;;;;;;;;
2019/07/21 11:05:28;;;;;;;4.8;4.4;;;;;;;;;;;;;
2019/07/21 11:07:57;;;;;;;4.5;3.4;;;;;;;;;;;;;
2019/07/21 11:10:16;;;;;;;4.4;3.3;;;;;;;;;;;;;
2019/07/21 11:12:42;;;;;;;4.5;3.1;;;;;;;;;;;;;
2019/07/21 11:15:11;;;;;;;3.5;3.2;;;;;;;;;;;;;
2019/07/21 11:17:36;;;;;;;4.4;3.2;;;;;;;;;;;;;
2019/07/21 11:19:59;;;;;;;4.3;3.4;;;;;;;;;;;;;
2019/07/21 11:22:24;;;;;;;3.5;3.2;;;;;;;;;;;;;
2019/07/21 11:24:50;;;;;;;6.3;3.5;;;;;;;;;;;;;
2019/07/21 11:27:20;;;;;;;6.2;3.6;;;;;;;;;;;;;
2019/07/21 11:29:39;;;;;;;3.7;3.4;;;;;;;;;;;;;
2019/07/21 11:32:04;;;;;;;4;3.6;;;;;;;;;;;;;
2019/07/21 11:39:21;;;;;;;3.9;3.5;;;;;;;;;;;;;
2019/07/21 11:41:48;;;;;;;6.2;3.7;;;;;;;;;;;;;
2019/07/21 11:44:12;;;;;;;3.9;3.5;;;;;;;;;;;;;
2019/07/21 11:46:42;;;;;;;3.7;3.4;;;;;;;;;;;;;
2019/07/21 11:49:00;;;;;;;3.8;3.3;;;;;;;;;;;;;
2019/07/21 11:51:27;;;;;;;4.5;3.7;;;;;;;;;;;;;
2019/07/21 11:53:54;;;;;;;4.7;3.6;;;;;;;;;;;;;
2019/07/21 11:56:19;;;;;;;4.1;3.6;;;;;;;;;;;;;
2019/07/21 11:58:45;;;;;;;5.2;3.5;;;;;;;;;;;;;
2019/07/21 12:01:07;;;;;;;4.3;3.4;;;;;;;;;;;;;
2019/07/21 12:03:33;;;;;;;4.2;3.4;;;;;;;;;;;;;
2019/07/21 12:06:01;;;;;;;4.2;3.2;;;;;;;;;;;;;
2019/07/21 12:08:26;;;;;;;4.1;3.3;;;;;;;;;;;;;
2019/07/21 12:10:50;;;;;;;4.5;3.3;;;;;;;;;;;;;
2019/07/21 12:13:13;;;;;;;4.4;3.3;;;;;;;;;;;;;
2019/07/21 12:15:46;;;;;;;3.8;3.4;;;;;;;;;;;;;
2019/07/21 12:18:07;;;;;;;3.8;3.4;;;;;;;;;;;;;
2019/07/21 12:20:36;;;;;;;3.9;3.4;;;;;;;;;;;;;
2019/07/21 12:23:00;;;;;;;3.7;3.4;;;;;;;;;;;;;
2019/07/21 12:25:24;;;;;;;3.4;3.1;;;;;;;;;;;;;
2019/07/21 12:27:53;;;;;;;3.2;2.9;;;;;;;;;;;;;
2019/07/21 12:30:16;;;;;;;3.4;3.1;;;;;;;;;;;;;
2019/07/21 12:32:43;;;;;;;3;2.7;;;;;;;;;;;;;
2019/07/21 12:35:07;;;;;;;4.2;2.8;;;;;;;;;;;;;
2019/07/21 12:37:34;;;;;;;3.9;3.3;;;;;;;;;;;;;
2019/07/21 12:39:57;;;;;;;3.8;2.9;;;;;;;;;;;;;
2019/07/21 12:42:22;;;;;;;3.1;2.8;;;;;;;;;;;;;
2019/07/21 12:44:50;;;;;;;3.1;2.8;;;;;;;;;;;;;
2019/07/21 12:47:13;;;;;;;3.6;2.9;;;;;;;;;;;;;
2019/07/21 12:49:37;;;;;;;3.5;2.9;;;;;;;;;;;;;
2019/07/21 12:52:03;;;;;;;3;2.8;;;;;;;;;;;;;
2019/07/21 12:54:30;;;;;;;3.2;2.9;;;;;;;;;;;;;
2019/07/21 12:56:56;;;;;;;3.1;2.7;;;;;;;;;;;;;
2019/07/21 12:59:19;;;;;;;3.1;2.8;;;;;;;;;;;;;
2019/07/21 13:01:48;;;;;;;3.9;2.8;;;;;;;;;;;;;
2019/07/21 13:04:10;;;;;;;4.7;2.8;;;;;;;;;;;;;
2019/07/21 13:06:38;;;;;;;3.3;2.8;;;;;;;;;;;;;
2019/07/21 13:09:11;;;;;;;3.4;2.8;;;;;;;;;;;;;
2019/07/21 13:11:28;;;;;;;3.6;2.7;;;;;;;;;;;;;
2019/07/21 13:13:53;;;;;;;2.6;2.4;;;;;;;;;;;;;
2019/07/21 13:16:19;;;;;;;4.3;2.7;;;;;;;;;;;;;
2019/07/21 13:18:44;;;;;;;3.3;3;;;;;;;;;;;;;
2019/07/21 13:21:11;;;;;;;4.2;2.8;;;;;;;;;;;;;
2019/07/21 13:23:38;;;;;;;3.3;2.5;;;;;;;;;;;;;
2019/07/21 13:25:59;;;;;;;3.3;2.7;;;;;;;;;;;;;
2019/07/21 13:28:24;;;;;;;3.3;2.7;;;;;;;;;;;;;
2019/07/21 13:30:51;;;;;;;4.8;2.8;;;;;;;;;;;;;
2019/07/21 13:33:15;;;;;;;4.2;2.7;;;;;;;;;;;;;
2019/07/21 13:35:40;;;;;;;3.3;2.7;;;;;;;;;;;;;
2019/07/21 13:38:05;;;;;;;3.2;2.8;;;;;;;;;;;;;
2019/07/21 13:40:32;;;;;;;3.3;2.8;;;;;;;;;;;;;
2019/07/21 13:42:55;;;;;;;2.9;2.6;;;;;;;;;;;;;
2019/07/21 13:45:25;;;;;;;3.1;2.6;;;;;;;;;;;;;
2019/07/21 13:47:49;;;;;;;4.1;2.8;;;;;;;;;;;;;
2019/07/21 13:50:13;;;;;;;3.7;2.6;;;;;;;;;;;;;
2019/07/21 13:52:41;;;;;;;4.3;3;;;;;;;;;;;;;
2019/07/21 13:55:11;;;;;;;4.9;2.8;;;;;;;;;;;;;
2019/07/21 13:57:34;;;;;;;3.6;2.8;;;;;;;;;;;;;
2019/07/21 13:59:59;;;;;;;3.2;2.9;;;;;;;;;;;;;
2019/07/21 14:02:22;;;;;;;3.1;2.8;;;;;;;;;;;;;
2019/07/21 14:04:51;;;;;;;3.4;2.7;;;;;;;;;;;;;
2019/07/21 14:07:25;;;;;;;3.1;2.8;;;;;;;;;;;;;
2019/07/21 14:09:40;;;;;;;3.8;3.2;;;;;;;;;;;;;
2019/07/21 14:12:10;;;;;;;3.4;2.9;;;;;;;;;;;;;
2019/07/21 14:14:33;;;;;;;4.7;3.2;;;;;;;;;;;;;
2019/07/21 14:16:55;;;;;;;4.7;3.1;;;;;;;;;;;;;
2019/07/21 14:19:20;;;;;;;3.4;3.1;;;;;;;;;;;;;
2019/07/21 14:21:52;;;;;;;3.8;3;;;;;;;;;;;;;
2019/07/21 14:24:12;;;;;;;4.1;3.3;;;;;;;;;;;;;
2019/07/21 14:26:38;;;;;;;5.1;3.2;;;;;;;;;;;;;
2019/07/21 14:29:03;;;;;;;3.6;3.1;;;;;;;;;;;;;
2019/07/21 14:31:34;;;;;;;4.5;3.3;;;;;;;;;;;;;
2019/07/21 14:33:54;;;;;;;3.6;3.3;;;;;;;;;;;;;
2019/07/21 14:36:18;;;;;;;4.4;3.4;;;;;;;;;;;;;
2019/07/21 14:38:44;;;;;;;4.7;3.3;;;;;;;;;;;;;
2019/07/21 14:41:11;;;;;;;3.5;3.2;;;;;;;;;;;;;
2019/07/21 14:43:38;;;;;;;3.5;3.2;;;;;;;;;;;;;
2019/07/21 14:46:00;;;;;;;3.6;3.3;;;;;;;;;;;;;
2019/07/21 14:48:25;;;;;;;5.4;3.4;;;;;;;;;;;;;
2019/07/21 14:50:56;;;;;;;4.2;3.4;;;;;;;;;;;;;
2019/07/21 14:53:18;;;;;;;4.9;3.3;;;;;;;;;;;;;
2019/07/21 14:55:41;;;;;;;5.7;3.5;;;;;;;;;;;;;
2019/07/21 14:58:05;;;;;;;8.7;3.7;;;;;;;;;;;;;
2019/07/21 15:00:32;;;;;;;5.4;3.5;;;;;;;;;;;;;
2019/07/21 15:02:57;;;;;;;5.2;3.5;;;;;;;;;;;;;
2019/07/21 15:05:22;;;;;;;4.8;3.3;;;;;;;;;;;;;
2019/07/21 15:07:46;;;;;;;4.6;3.7;;;;;;;;;;;;;
2019/07/21 15:10:16;;;;;;;6.5;3.5;;;;;;;;;;;;;
2019/07/21 15:12:37;;;;;;;7.2;3.7;;;;;;;;;;;;;
2019/07/21 15:15:04;;;;;;;5.2;3.5;;;;;;;;;;;;;
2019/07/21 15:17:31;;;;;;;5;3.7;;;;;;;;;;;;;
2019/07/21 15:19:54;;;;;;;6.4;3.7;;;;;;;;;;;;;
2019/07/21 15:22:20;;;;;;;8;4;;;;;;;;;;;;;
2019/07/21 15:24:44;;;;;;;5;3.4;;;;;;;;;;;;;
2019/07/21 15:27:16;;;;;;;5.7;3.7;;;;;;;;;;;;;
2019/07/21 15:29:39;;;;;;;4.8;3.3;;;;;;;;;;;;;
2019/07/21 15:32:03;;;;;;;5.9;3.6;;;;;;;;;;;;;
2019/07/21 15:34:27;;;;;;;5.6;3.9;;;;;;;;;;;;;
2019/07/21 15:36:51;;;;;;;5.2;3.5;;;;;;;;;;;;;
2019/07/21 15:39:17;;;;;;;4.8;3.5;;;;;;;;;;;;;
2019/07/21 15:41:48;;;;;;;4.8;3.2;;;;;;;;;;;;;
2019/07/21 15:44:18;;;;;;;4.6;3.6;;;;;;;;;;;;;
2019/07/21 15:46:32;;;;;;;6.5;3.8;;;;;;;;;;;;;
2019/07/21 15:48:59;;;;;;;4.4;3.6;;;;;;;;;;;;;
2019/07/21 15:51:25;;;;;;;4.8;4;;;;;;;;;;;;;
2019/07/21 15:53:52;;;;;;;5.1;3.6;;;;;;;;;;;;;
2019/07/21 15:56:17;;;;;;;8;4;;;;;;;;;;;;;
2019/07/21 15:58:41;;;;;;;5.7;4.2;;;;;;;;;;;;;
2019/07/21 16:01:07;;;;;;;5.6;3.9;;;;;;;;;;;;;
2019/07/21 16:03:31;;;;;;;5.1;3.9;;;;;;;;;;;;;
2019/07/21 16:05:58;;;;;;;4.7;3.9;;;;;;;;;;;;;
2019/07/21 16:08:21;;;;;;;5.1;4.2;;;;;;;;;;;;;
2019/07/21 16:10:47;;;;;;;6.1;4.1;;;;;;;;;;;;;
2019/07/21 16:13:12;;;;;;;7.1;3.8;;;;;;;;;;;;;
2019/07/21 16:15:42;;;;;;;6;4;;;;;;;;;;;;;
2019/07/21 16:18:07;;;;;;;5.7;3.8;;;;;;;;;;;;;
2019/07/21 16:20:31;;;;;;;6;4.1;;;;;;;;;;;;;
2019/07/21 16:22:58;;;;;;;8.2;4.3;;;;;;;;;;;;;
2019/07/21 16:25:23;;;;;;;6.7;4.3;;;;;;;;;;;;;
2019/07/21 16:27:55;;;;;;;4.3;3.8;;;;;;;;;;;;;
2019/07/21 16:30:15;;;;;;;6.4;4.3;;;;;;;;;;;;;
2019/07/21 16:32:42;;;;;;;5.8;4.2;;;;;;;;;;;;;
2019/07/21 16:35:10;;;;;;;7.9;4.2;;;;;;;;;;;;;
2019/07/21 16:37:35;;;;;;;8.3;4.5;;;;;;;;;;;;;
2019/07/21 16:40:07;;;;;;;4.6;3.9;;;;;;;;;;;;;
2019/07/21 16:42:31;;;;;;;5.1;4;;;;;;;;;;;;;
2019/07/21 16:44:54;;;;;;;5.1;3.8;;;;;;;;;;;;;
2019/07/21 16:47:22;;;;;;;4.9;4;;;;;;;;;;;;;
2019/07/21 16:49:47;;;;;;;5.2;3.9;;;;;;;;;;;;;
2019/07/21 16:52:15;;;;;;;6.5;4.1;;;;;;;;;;;;;
2019/07/21 16:54:36;;;;;;;5.1;3.9;;;;;;;;;;;;;
2019/07/21 16:57:01;;;;;;;4.5;3.8;;;;;;;;;;;;;
2019/07/21 16:59:31;;;;;;;4.7;3.6;;;;;;;;;;;;;
2019/07/21 17:01:55;;;;;;;5.4;4;;;;;;;;;;;;;
2019/07/21 17:04:16;;;;;;;6.1;3.7;;;;;;;;;;;;;
2019/07/21 17:06:42;;;;;;;5.3;4.2;;;;;;;;;;;;;
2019/07/21 17:09:08;;;;;;;5.9;4.5;;;;;;;;;;;;;
2019/07/21 17:11:35;;;;;;;4.6;4.1;;;;;;;;;;;;;
2019/07/21 17:13:57;;;;;;;6.4;4.1;;;;;;;;;;;;;
2019/07/21 17:16:22;;;;;;;5.6;4.3;;;;;;;;;;;;;
2019/07/21 17:18:52;;;;;;;6.2;4.2;;;;;;;;;;;;;
2019/07/21 17:21:14;;;;;;;5.2;4.5;;;;;;;;;;;;;
2019/07/21 17:23:40;;;;;;;6.1;4.5;;;;;;;;;;;;;
2019/07/21 17:26:11;;;;;;;5.8;4.5;;;;;;;;;;;;;
2019/07/21 17:28:30;;;;;;;6.3;4.2;;;;;;;;;;;;;
2019/07/21 17:30:55;;;;;;;5.6;4.2;;;;;;;;;;;;;
2019/07/21 17:33:20;;;;;;;5.2;4.1;;;;;;;;;;;;;
2019/07/21 17:35:48;;;;;;;5.5;4.2;;;;;;;;;;;;;
2019/07/21 17:38:14;;;;;;;5.4;4;;;;;;;;;;;;;
2019/07/21 17:40:36;;;;;;;5.9;4.2;;;;;;;;;;;;;
2019/07/21 17:43:29;;;;;;;6.7;4.5;;;;;;;;;;;;;
2019/07/21 17:46:03;;;;;;;5.2;4.1;;;;;;;;;;;;;
2019/07/21 17:48:42;;;;;;;5.8;4;;;;;;;;;;;;;
2019/07/21 17:51:19;;;;;;;4.7;4;;;;;;;;;;;;;
2019/07/21 17:53:53;;;;;;;7.8;4.1;;;;;;;;;;;;;
2019/07/21 17:56:23;;;;;;;5.8;4.4;;;;;;;;;;;;;
2019/07/21 17:59:11;;;;;;;5.5;4.4;;;;;;;;;;;;;
2019/07/21 18:01:53;;;;;;;6.2;4.1;;;;;;;;;;;;;
2019/07/21 18:04:33;;;;;;;5.4;4.1;;;;;;;;;;;;;
2019/07/21 18:07:10;;;;;;;4.7;4.1;;;;;;;;;;;;;
2019/07/21 18:09:50;;;;;;;5.9;4.5;;;;;;;;;;;;;
2019/07/21 18:12:35;;;;;;;7.9;4.9;;;;;;;;;;;;;
2019/07/21 18:15:09;;;;;;;7;5;;;;;;;;;;;;;
2019/07/21 18:17:46;;;;;;;5.6;4.5;;;;;;;;;;;;;
2019/07/21 18:20:25;;;;;;;6.4;4.7;;;;;;;;;;;;;
2019/07/21 18:23:06;;;;;;;7.3;4.6;;;;;;;;;;;;;
2019/07/21 18:25:40;;;;;;;7.5;4.9;;;;;;;;;;;;;
2019/07/21 18:28:23;;;;;;;7.3;4.7;;;;;;;;;;;;;
2019/07/21 18:31:05;;;;;;;8.1;5.5;;;;;;;;;;;;;
2019/07/21 18:33:39;;;;;;;10.9;8.6;;;;;;;;;;;;;
2019/07/21 18:36:18;;;;;;;9.1;7.6;;;;;;;;;;;;;
2019/07/21 18:38:58;;;;;;;8.5;6.9;;;;;;;;;;;;;
2019/07/21 18:41:39;;;;;;;8.2;6.9;;;;;;;;;;;;;
2019/07/21 18:44:12;;;;;;;7.4;5.8;;;;;;;;;;;;;
2019/07/21 18:46:55;;;;;;;7.7;6.9;;;;;;;;;;;;;
2019/07/21 18:49:34;;;;;;;9.1;7.4;;;;;;;;;;;;;
2019/07/21 18:56:30;;;;;;;9.6;6.4;;;;;;;;;;;;;
2019/07/21 18:59:04;;;;;;;7.7;5.4;;;;;;;;;;;;;
2019/07/21 19:01:41;;;;;;;7.1;4.9;;;;;;;;;;;;;
2019/07/21 19:04:16;;;;;;;8.6;5.3;;;;;;;;;;;;;
2019/07/21 19:06:50;;;;;;;7.3;5.2;;;;;;;;;;;;;